createdAt,value
2019-05-22T00:01:28.290Z,27.40
2019-05-22T00:04:38.098Z,28.33
2019-05-22T00:07:44.065Z,30.43
2019-05-22T00:10:49.642Z,27.77
2019-05-22T00:13:55.235Z,29.43
2019-05-22T00:17:02.566Z,28.63
2019-05-22T00:20:06.532Z,29.10
2019-05-22T00:23:12.383Z,30.00
2019-05-22T00:26:16.670Z,27.60
2019-05-22T00:29:22.313Z,27.83
2019-05-22T00:32:27.231Z,25.70
2019-05-22T00:35:31.679Z,24.77
2019-05-22T00:38:37.365Z,22.97
2019-05-22T00:41:42.837Z,21.73
2019-05-22T00:44:48.204Z,20.53
2019-05-22T00:47:52.420Z,19.47
2019-05-22T00:51:13.046Z,17.10
2019-05-22T00:54:33.951Z,14.63
2019-05-22T00:57:46.201Z,14.73
2019-05-22T01:00:54.498Z,15.33
2019-05-22T01:04:02.296Z,13.57
2019-05-22T01:07:11.977Z,14.03
2019-05-22T01:10:17.732Z,14.47
2019-05-22T01:13:22.414Z,14.17
2019-05-22T01:16:27.174Z,15.20
2019-05-22T01:19:31.284Z,15.87
2019-05-22T01:22:37.085Z,15.60
2019-05-22T01:25:42.612Z,16.20
2019-05-22T01:28:48.551Z,14.67
2019-05-22T01:31:59.993Z,16.13
2019-05-22T01:35:04.666Z,15.43
2019-05-22T01:38:11.961Z,15.90
2019-05-22T01:41:20.927Z,14.20
2019-05-22T01:44:26.251Z,15.13
2019-05-22T01:47:43.941Z,15.80
2019-05-22T01:50:57.025Z,15.03
2019-05-22T01:54:02.631Z,15.23
2019-05-22T01:57:06.247Z,13.70
2019-05-22T02:00:13.388Z,12.90
2019-05-22T02:03:19.825Z,12.88
2019-05-22T02:06:24.918Z,12.30
2019-05-22T02:09:35.387Z,11.37
2019-05-22T02:12:51.473Z,10.17
2019-05-22T02:15:55.625Z,10.18
2019-05-22T02:19:00.254Z,10.13
2019-05-22T02:22:05.128Z,10.23
2019-05-22T02:25:09.935Z,11.17
2019-05-22T02:28:15.371Z,9.93
2019-05-22T02:31:25.930Z,9.93
2019-05-22T02:34:30.159Z,10.63
2019-05-22T02:37:35.380Z,8.87
2019-05-22T02:40:41.768Z,10.70
2019-05-22T02:43:45.609Z,9.73
2019-05-22T02:46:51.216Z,10.08
2019-05-22T02:49:57.204Z,10.50
2019-05-22T02:53:03.595Z,11.00
2019-05-22T02:56:08.577Z,10.23
2019-05-22T02:59:15.155Z,10.60
2019-05-22T03:02:19.977Z,11.00
2019-05-22T03:05:24.733Z,10.80
2019-05-22T03:08:34.413Z,11.30
2019-05-22T03:11:40.996Z,10.93
2019-05-22T03:14:45.661Z,12.73
2019-05-22T03:17:52.032Z,11.80
2019-05-22T03:20:56.633Z,11.70
2019-05-22T03:24:02.939Z,11.97
2019-05-22T03:27:07.121Z,11.83
2019-05-22T03:30:25.874Z,12.10
2019-05-22T03:33:30.224Z,11.63
2019-05-22T03:36:34.112Z,12.83
2019-05-22T03:39:38.766Z,11.67
2019-05-22T03:42:43.766Z,12.03
2019-05-22T03:45:49.119Z,11.43
2019-05-22T03:48:53.237Z,11.30
2019-05-22T03:51:58.436Z,12.37
2019-05-22T03:55:02.275Z,12.27
2019-05-22T03:58:07.618Z,12.07
2019-05-22T04:01:12.490Z,13.33
2019-05-22T04:04:34.247Z,12.70
2019-05-22T04:07:39.320Z,13.10
2019-05-22T04:11:10.163Z,12.30
2019-05-22T04:14:14.202Z,13.00
2019-05-22T04:17:19.786Z,12.17
2019-05-22T04:20:23.938Z,12.40
2019-05-22T04:23:27.981Z,13.27
2019-05-22T04:26:33.237Z,12.53
2019-05-22T04:29:37.964Z,11.50
2019-05-22T04:32:44.183Z,10.60
2019-05-22T04:35:55.291Z,10.13
2019-05-22T04:38:57.087Z,11.13
2019-05-22T04:42:02.265Z,11.43
2019-05-22T04:45:15.251Z,10.83
2019-05-22T04:48:19.558Z,11.57
2019-05-22T04:51:29.865Z,11.13
2019-05-22T04:54:34.881Z,11.43
2019-05-22T04:57:39.382Z,10.80
2019-05-22T05:00:43.365Z,11.77
2019-05-22T05:03:48.642Z,11.00
2019-05-22T05:06:53.723Z,11.30
2019-05-22T05:10:00.893Z,8.70
2019-05-22T05:13:05.019Z,8.33
2019-05-22T05:16:09.299Z,9.07
2019-05-22T05:19:13.230Z,7.65
2019-05-22T05:22:24.926Z,8.03
2019-05-22T05:25:29.786Z,8.13
2019-05-22T05:28:34.038Z,7.73
2019-05-22T05:31:38.455Z,8.10
2019-05-22T05:35:08.291Z,7.00
2019-05-22T05:38:12.509Z,7.27
2019-05-22T05:41:16.522Z,7.60
2019-05-22T05:44:20.478Z,7.80
2019-05-22T05:47:25.270Z,8.13
2019-05-22T05:50:39.453Z,8.40
2019-05-22T05:53:44.161Z,7.30
2019-05-22T05:56:49.761Z,8.30
2019-05-22T05:59:54.480Z,8.23
2019-05-22T06:03:03.737Z,8.60
2019-05-22T06:07:00.467Z,8.33
2019-05-22T06:10:30.221Z,8.35
2019-05-22T06:13:34.547Z,9.10
2019-05-22T06:17:38.368Z,8.77
2019-05-22T06:20:42.102Z,9.50
2019-05-22T06:24:18.217Z,9.30
2019-05-22T06:27:30.297Z,9.53
2019-05-22T06:30:44.660Z,9.10
2019-05-22T06:33:48.407Z,9.33
2019-05-22T06:36:52.927Z,9.07
2019-05-22T06:39:57.556Z,9.60
2019-05-22T06:43:37.558Z,9.17
2019-05-22T06:46:45.706Z,8.80
2019-05-22T06:49:52.788Z,8.80
2019-05-22T06:53:09.329Z,8.73
2019-05-22T06:56:02.490Z,8.80
2019-05-22T06:59:07.385Z,8.40
2019-05-22T07:02:14.396Z,9.77
2019-05-22T07:05:18.276Z,8.40
2019-05-22T07:08:22.627Z,8.80
2019-05-22T07:11:27.472Z,8.07
2019-05-22T07:14:31.536Z,8.27
2019-05-22T07:17:36.181Z,7.77
2019-05-22T07:20:41.860Z,7.27
2019-05-22T07:23:47.657Z,7.90
2019-05-22T07:26:52.350Z,7.63
2019-05-22T07:29:57.023Z,7.77
2019-05-22T07:33:00.868Z,7.07
2019-05-22T07:36:10.138Z,7.00
2019-05-22T07:39:10.707Z,7.47
2019-05-22T07:42:14.819Z,7.27
2019-05-22T07:45:19.226Z,7.33
2019-05-22T07:48:25.358Z,7.47
2019-05-22T07:51:29.429Z,6.90
2019-05-22T07:54:34.206Z,7.00
2019-05-22T07:57:40.598Z,7.50
2019-05-22T08:00:53.889Z,6.90
2019-05-22T08:03:58.274Z,6.40
2019-05-22T08:07:02.258Z,6.87
2019-05-22T08:10:07.775Z,7.70
2019-05-22T08:13:12.361Z,7.00
2019-05-22T08:16:16.758Z,6.70
2019-05-22T08:19:21.178Z,6.53
2019-05-22T08:22:25.885Z,6.53
2019-05-22T08:25:31.629Z,6.20
2019-05-22T08:28:36.077Z,6.20
2019-05-22T08:31:41.555Z,6.30
2019-05-22T08:34:46.930Z,6.37
2019-05-22T08:37:51.485Z,6.13
2019-05-22T08:40:55.569Z,6.23
2019-05-22T08:44:15.416Z,6.47
2019-05-22T08:47:07.170Z,6.30
2019-05-22T08:50:12.288Z,7.10
2019-05-22T08:53:16.558Z,7.43
2019-05-22T08:56:20.505Z,7.37
2019-05-22T08:59:24.440Z,7.50
2019-05-22T09:02:28.908Z,6.67
2019-05-22T09:05:33.191Z,7.40
2019-05-22T09:08:37.373Z,7.17
2019-05-22T09:11:41.132Z,7.93
2019-05-22T09:14:45.383Z,6.43
2019-05-22T09:17:49.294Z,7.10
2019-05-22T09:20:53.541Z,7.40
2019-05-22T09:23:58.859Z,7.67
2019-05-22T09:27:03.336Z,6.93
2019-05-22T09:30:08.376Z,7.47
2019-05-22T09:33:12.406Z,7.33
2019-05-22T09:36:16.327Z,7.60
2019-05-22T09:39:20.599Z,7.30
2019-05-22T09:42:24.765Z,7.43
2019-05-22T09:45:28.590Z,6.67
2019-05-22T09:48:34.279Z,7.37
2019-05-22T09:51:38.014Z,6.87
2019-05-22T09:54:42.666Z,7.03
2019-05-22T09:57:47.035Z,6.63
2019-05-22T10:00:51.163Z,6.40
2019-05-22T10:03:55.286Z,5.67
2019-05-22T10:06:59.085Z,6.23
2019-05-22T10:10:03.289Z,6.40
2019-05-22T10:13:07.282Z,6.47
2019-05-22T10:16:11.369Z,5.93
2019-05-22T10:19:15.289Z,6.40
2019-05-22T10:22:19.766Z,6.40
2019-05-22T10:25:23.922Z,6.30
2019-05-22T10:28:27.995Z,6.40
2019-05-22T10:31:32.476Z,6.40
2019-05-22T10:34:36.344Z,6.37
2019-05-22T10:37:40.901Z,6.80
2019-05-22T10:40:44.757Z,7.67
2019-05-22T10:43:48.787Z,7.07
2019-05-22T10:46:52.831Z,7.27
2019-05-22T10:49:57.734Z,7.40
2019-05-22T10:53:01.636Z,6.67
2019-05-22T10:56:05.882Z,7.90
2019-05-22T10:59:09.682Z,6.67
2019-05-22T11:02:14.079Z,6.70
2019-05-22T11:05:20.074Z,7.40
2019-05-22T11:08:23.853Z,7.83
2019-05-22T11:11:27.516Z,7.30
2019-05-22T11:14:33.412Z,7.87
2019-05-22T11:17:37.890Z,8.20
2019-05-22T11:20:42.721Z,8.73
2019-05-22T11:23:52.262Z,9.27
2019-05-22T11:26:52.294Z,9.17
2019-05-22T11:29:56.989Z,9.67
2019-05-22T11:33:01.431Z,10.10
2019-05-22T11:36:05.444Z,10.27
2019-05-22T11:39:13.571Z,9.77
2019-05-22T11:42:17.436Z,10.93
2019-05-22T11:45:21.547Z,11.13
2019-05-22T11:48:25.533Z,10.93
2019-05-22T11:51:29.346Z,12.70
2019-05-22T11:54:33.280Z,13.70
2019-05-22T11:57:38.995Z,13.47
2019-05-22T12:00:43.008Z,14.77
2019-05-22T12:03:47.635Z,15.07
2019-05-22T12:06:53.746Z,15.23
2019-05-22T12:09:57.747Z,14.03
2019-05-22T12:13:02.703Z,15.47
2019-05-22T12:16:07.161Z,15.27
2019-05-22T12:19:11.212Z,15.60
2019-05-22T12:22:17.508Z,15.17
2019-05-22T12:25:21.046Z,16.20
2019-05-22T12:28:25.329Z,15.53
2019-05-22T12:31:29.806Z,15.70
2019-05-22T12:34:33.889Z,16.80
2019-05-22T12:37:37.927Z,16.87
2019-05-22T12:40:42.343Z,16.87
2019-05-22T12:43:47.421Z,17.07
2019-05-22T12:46:51.415Z,17.13
2019-05-22T12:49:55.709Z,18.23
2019-05-22T12:53:02.757Z,17.43
2019-05-22T12:56:06.847Z,17.57
2019-05-22T12:59:11.290Z,17.60
2019-05-22T13:02:15.923Z,18.60
2019-05-22T13:05:19.932Z,17.60
2019-05-22T13:08:23.853Z,16.45
2019-05-22T13:11:27.895Z,17.47
2019-05-22T13:14:32.004Z,18.80
2019-05-22T13:17:36.770Z,18.43
2019-05-22T13:20:44.918Z,18.23
2019-05-22T13:23:51.058Z,18.03
2019-05-22T13:26:56.440Z,17.75
2019-05-22T13:30:02.260Z,17.90
2019-05-22T13:33:08.996Z,18.62
2019-05-22T13:36:14.293Z,18.17
2019-05-22T13:39:19.412Z,18.23
2019-05-22T13:42:23.674Z,18.40
2019-05-22T13:45:30.151Z,18.13
2019-05-22T13:48:35.191Z,18.37
2019-05-22T13:51:40.569Z,18.20
2019-05-22T13:54:45.139Z,17.20
2019-05-22T13:57:49.498Z,18.57
2019-05-22T14:00:53.534Z,16.93
2019-05-22T14:03:57.373Z,15.97
2019-05-22T14:07:01.279Z,17.33
2019-05-22T14:10:06.732Z,17.60
2019-05-22T14:13:10.577Z,16.53
2019-05-22T14:16:14.845Z,18.27
2019-05-22T14:19:18.706Z,18.23
2019-05-22T14:22:22.625Z,18.77
2019-05-22T14:25:27.988Z,16.97
2019-05-22T14:28:34.202Z,18.23
2019-05-22T14:31:38.344Z,18.90
2019-05-22T14:34:42.328Z,18.07
2019-05-22T14:37:46.325Z,18.13
2019-05-22T14:40:50.370Z,18.17
2019-05-22T14:43:54.341Z,17.77
2019-05-22T14:47:12.229Z,18.37
2019-05-22T14:50:03.933Z,18.43
2019-05-22T14:53:08.245Z,17.50
2019-05-22T14:56:12.193Z,17.40
2019-05-22T14:59:17.232Z,17.93
2019-05-22T15:02:21.815Z,18.67
2019-05-22T15:05:25.942Z,18.40
2019-05-22T15:08:29.722Z,17.85
2019-05-22T15:11:33.781Z,18.00
2019-05-22T15:14:37.716Z,17.53
2019-05-22T15:17:41.590Z,16.90
2019-05-22T15:20:58.909Z,17.80
2019-05-22T15:24:03.530Z,17.57
2019-05-22T15:27:08.165Z,17.80
2019-05-22T15:30:12.481Z,15.93
2019-05-22T15:33:16.789Z,15.72
2019-05-22T15:36:24.003Z,15.47
2019-05-22T15:39:28.598Z,14.83
2019-05-22T15:42:38.744Z,15.30
2019-05-22T15:45:42.972Z,15.37
2019-05-22T15:48:48.830Z,16.13
2019-05-22T15:51:53.051Z,15.07
2019-05-22T15:54:57.818Z,14.83
2019-05-22T15:58:02.795Z,14.70
2019-05-22T16:01:10.005Z,13.85
2019-05-22T16:04:16.589Z,14.60
2019-05-22T16:07:21.323Z,14.33
2019-05-22T16:10:26.046Z,14.70
2019-05-22T16:13:32.602Z,13.10
2019-05-22T16:16:37.361Z,14.35
2019-05-22T16:19:42.091Z,14.50
2019-05-22T16:22:46.610Z,14.37
2019-05-22T16:25:52.029Z,13.43
2019-05-22T16:28:56.408Z,14.43
2019-05-22T16:32:04.206Z,13.45
2019-05-22T16:35:09.554Z,13.20
2019-05-22T16:38:14.136Z,14.50
2019-05-22T16:41:18.789Z,13.53
2019-05-22T16:44:23.572Z,13.20
2019-05-22T16:47:27.413Z,12.50
2019-05-22T16:50:32.262Z,12.07
2019-05-22T16:53:37.849Z,11.80
2019-05-22T16:56:41.937Z,10.87
2019-05-22T16:59:45.863Z,11.27
2019-05-22T17:02:50.111Z,11.93
2019-05-22T17:05:54.506Z,11.30
2019-05-22T17:09:00.415Z,11.03
2019-05-22T17:12:06.526Z,9.77
2019-05-22T17:15:15.705Z,10.87
2019-05-22T17:18:20.049Z,9.73
2019-05-22T17:21:24.301Z,10.00
2019-05-22T17:24:28.614Z,9.23
2019-05-22T17:27:32.687Z,9.97
2019-05-22T17:30:37.170Z,9.83
2019-05-22T17:33:42.275Z,9.43
2019-05-22T17:36:46.191Z,10.20
2019-05-22T17:39:51.818Z,8.30
2019-05-22T17:42:58.994Z,8.73
2019-05-22T17:46:04.777Z,8.30
2019-05-22T17:49:08.738Z,9.07
2019-05-22T17:52:14.468Z,8.50
2019-05-22T17:55:19.893Z,8.93
2019-05-22T17:58:29.029Z,8.87
2019-05-22T18:01:29.986Z,9.53
2019-05-22T18:04:34.191Z,9.80
2019-05-22T18:07:38.703Z,9.60
2019-05-22T18:10:45.707Z,9.70
2019-05-22T18:13:59.941Z,9.00
2019-05-22T18:17:04.181Z,9.10
2019-05-22T18:20:11.813Z,9.23
2019-05-22T18:23:15.682Z,8.37
2019-05-22T18:26:19.763Z,8.23
2019-05-22T18:29:23.712Z,8.20
2019-05-22T18:32:30.985Z,7.60
2019-05-22T18:35:33.266Z,7.73
2019-05-22T18:38:36.982Z,8.03
2019-05-22T18:44:50.998Z,7.27
2019-05-22T18:47:55.136Z,6.87
2019-05-22T18:50:59.600Z,6.90
2019-05-22T18:54:03.768Z,7.10
2019-05-22T18:57:07.809Z,7.00
2019-05-22T19:00:12.139Z,7.50
2019-05-22T19:03:16.539Z,6.93
2019-05-22T19:06:30.240Z,6.97
2019-05-22T19:09:26.618Z,6.50
2019-05-22T19:12:30.990Z,6.43
2019-05-22T19:15:35.383Z,5.97
2019-05-22T19:18:39.106Z,6.20
2019-05-22T19:21:43.527Z,6.40
2019-05-22T19:24:47.833Z,6.43
2019-05-22T19:27:51.646Z,6.40
2019-05-22T19:30:55.832Z,5.97
2019-05-22T19:34:01.563Z,5.70
2019-05-22T19:37:05.603Z,6.00
2019-05-22T19:40:13.531Z,5.90
2019-05-22T19:43:17.338Z,5.60
2019-05-22T19:46:21.201Z,5.47
2019-05-22T19:49:25.418Z,5.40
2019-05-22T19:52:41.142Z,5.87
2019-05-22T19:55:37.018Z,5.57
2019-05-22T19:58:41.723Z,5.43
2019-05-22T20:01:45.474Z,5.70
2019-05-22T20:04:49.522Z,5.13
2019-05-22T20:07:54.062Z,5.27
2019-05-22T20:10:58.805Z,5.63
2019-05-22T20:14:03.764Z,5.30
2019-05-22T20:17:07.817Z,5.50
2019-05-22T20:20:14.699Z,5.50
2019-05-22T20:23:34.271Z,5.17
2019-05-22T20:26:24.757Z,5.37
2019-05-22T20:29:29.230Z,5.30
2019-05-22T20:32:33.361Z,5.60
2019-05-22T20:35:37.508Z,5.30
2019-05-22T20:38:41.377Z,5.43
2019-05-22T20:41:45.178Z,5.70
2019-05-22T20:44:49.386Z,5.87
2019-05-22T20:48:17.325Z,5.03
2019-05-22T20:51:23.965Z,5.40
2019-05-22T20:54:28.378Z,5.03
2019-05-22T20:57:33.457Z,4.80
2019-05-22T21:00:38.944Z,5.10
2019-05-22T21:03:43.811Z,5.47
2019-05-22T21:06:59.605Z,5.60
2019-05-22T21:10:01.826Z,5.40
2019-05-22T21:13:08.327Z,5.77
2019-05-22T21:16:12.412Z,5.50
2019-05-22T21:19:17.978Z,5.37
2019-05-22T21:22:23.406Z,5.20
2019-05-22T21:25:27.575Z,5.10
2019-05-22T21:28:31.406Z,4.93
2019-05-22T21:31:35.800Z,5.47
2019-05-22T21:34:40.176Z,5.30
2019-05-22T21:37:44.202Z,5.23
2019-05-22T21:40:48.581Z,5.13
2019-05-22T21:43:53.841Z,5.50
2019-05-22T21:46:57.799Z,5.47
2019-05-22T21:50:01.630Z,5.10
2019-05-22T21:53:10.485Z,5.70
2019-05-22T21:56:14.710Z,5.77
2019-05-22T21:59:18.508Z,5.00
2019-05-22T22:02:30.478Z,5.15
2019-05-22T22:05:34.291Z,5.63
2019-05-22T22:08:38.074Z,5.83
2019-05-22T22:11:43.726Z,5.47
2019-05-22T22:14:48.497Z,5.27
2019-05-22T22:17:53.034Z,5.17
2019-05-22T22:20:57.515Z,5.55
2019-05-22T22:24:02.089Z,5.40
2019-05-22T22:27:06.538Z,5.97
2019-05-22T22:30:23.428Z,5.67
2019-05-22T22:33:30.945Z,6.13
2019-05-22T22:36:35.321Z,5.67
2019-05-22T22:42:52.518Z,5.67
2019-05-22T22:46:06.503Z,5.53
2019-05-22T22:49:15.174Z,6.40
2019-05-22T22:52:19.354Z,5.70
2019-05-22T22:55:24.749Z,5.93
2019-05-22T22:58:29.638Z,6.10
2019-05-22T23:01:35.581Z,5.83
2019-05-22T23:04:40.660Z,6.07
2019-05-22T23:07:44.530Z,6.00
2019-05-22T23:10:48.947Z,6.00
2019-05-22T23:13:52.788Z,5.70
2019-05-22T23:16:57.169Z,5.30
2019-05-22T23:19:59.891Z,6.10
2019-05-22T23:23:02.365Z,5.80
2019-05-22T23:26:08.811Z,5.50
2019-05-22T23:29:14.252Z,5.70
2019-05-22T23:32:19.074Z,5.40
2019-05-22T23:35:24.652Z,5.70
2019-05-22T23:38:29.629Z,5.40
2019-05-22T23:41:34.484Z,6.27
2019-05-22T23:44:39.641Z,5.73
2019-05-22T23:48:03.296Z,4.97
2019-05-22T23:51:07.258Z,5.63
2019-05-22T23:54:12.627Z,5.33
2019-05-22T23:57:16.603Z,5.33
